sensor_id;sensor_type;location;lat;lon;timestamp;pressure;altitude;pressure_sealevel;temperature;humidity
35435;BME280;21556;55.782;37.528;2023-09-19T00:00:59;100260.59;;;14.39;100.00
35435;BME280;21556;55.782;37.528;2023-09-19T00:03:26;100259.69;;;14.41;100.00
35435;BME280;21556;55.782;37.528;2023-09-19T00:05:58;100258.81;;;14.38;100.00
35435;BME280;21556;55.782;37.528;2023-09-19T00:08:24;100256.91;;;14.26;100.00
35435;BME280;21556;55.782;37.528;2023-09-19T00:10:54;100266.50;;;14.19;100.00
35435;BME280;21556;55.782;37.528;2023-09-19T00:13:24;100253.50;;;14.36;100.00
35435;BME280;21556;55.782;37.528;2023-09-19T00:15:53;100257.91;;;14.36;100.00
35435;BME280;21556;55.782;37.528;2023-09-19T00:18:21;100265.59;;;14.13;100.00
35435;BME280;21556;55.782;37.528;2023-09-19T00:20:52;100262.19;;;14.25;100.00
35435;BME280;21556;55.782;37.528;2023-09-19T00:23:20;100259.63;;;14.32;100.00
35435;BME280;21556;55.782;37.528;2023-09-19T00:25:51;100260.31;;;14.13;100.00
35435;BME280;21556;55.782;37.528;2023-09-19T00:28:22;100257.00;;;14.32;100.00
35435;BME280;21556;55.782;37.528;2023-09-19T00:30:53;100261.47;;;14.39;100.00
35435;BME280;21556;55.782;37.528;2023-09-19T00:33:24;100260.31;;;14.13;100.00
35435;BME280;21556;55.782;37.528;2023-09-19T00:35:56;100269.88;;;14.02;100.00
35435;BME280;21556;55.782;37.528;2023-09-19T00:38:29;100255.22;;;14.31;100.00
35435;BME280;21556;55.782;37.528;2023-09-19T00:41:00;100262.31;;;14.37;100.00
35435;BME280;21556;55.782;37.528;2023-09-19T00:43:37;100269.94;;;14.11;100.00
35435;BME280;21556;55.782;37.528;2023-09-19T00:46:03;100258.69;;;14.24;100.00
35435;BME280;21556;55.782;37.528;2023-09-19T00:48:39;100260.47;;;14.30;100.00
35435;BME280;21556;55.782;37.528;2023-09-19T00:51:07;100253.44;;;14.30;100.00
35435;BME280;21556;55.782;37.528;2023-09-19T00:53:47;100263.00;;;14.17;100.00
35435;BME280;21556;55.782;37.528;2023-09-19T00:56:20;100255.38;;;14.48;100.00
35435;BME280;21556;55.782;37.528;2023-09-19T00:58:51;100262.19;;;14.26;100.00
35435;BME280;21556;55.782;37.528;2023-09-19T01:01:22;100259.66;;;14.37;100.00
35435;BME280;21556;55.782;37.528;2023-09-19T01:03:51;100253.53;;;14.38;100.00
35435;BME280;21556;55.782;37.528;2023-09-19T01:06:17;100265.59;;;14.13;100.00
35435;BME280;21556;55.782;37.528;2023-09-19T01:08:44;100263.66;;;13.98;100.00
35435;BME280;21556;55.782;37.528;2023-09-19T01:11:33;100257.78;;;14.24;100.00
35435;BME280;21556;55.782;37.528;2023-09-19T01:14:50;100253.34;;;14.21;100.00
35435;BME280;21556;55.782;37.528;2023-09-19T01:17:13;100256.75;;;14.12;100.00
35435;BME280;21556;55.782;37.528;2023-09-19T01:26:15;100242.59;;;14.04;100.00
35435;BME280;21556;55.782;37.528;2023-09-19T01:28:52;100253.25;;;14.10;100.00
35435;BME280;21556;55.782;37.528;2023-09-19T01:31:35;100247.25;;;14.24;100.00
35435;BME280;21556;55.782;37.528;2023-09-19T01:34:07;100247.19;;;14.20;100.00
35435;BME280;21556;55.782;37.528;2023-09-19T01:36:36;100252.44;;;14.17;100.00
35435;BME280;21556;55.782;37.528;2023-09-19T01:39:12;100252.41;;;14.16;100.00
35435;BME280;21556;55.782;37.528;2023-09-19T01:41:51;100254.78;;;13.93;100.00
35435;BME280;21556;55.782;37.528;2023-09-19T01:47:39;100244.06;;;13.79;100.00
35435;BME280;21556;55.782;37.528;2023-09-19T01:50:17;100246.03;;;13.97;100.00
35435;BME280;21556;55.782;37.528;2023-09-19T01:52:57;100233.16;;;14.25;100.00
35435;BME280;21556;55.782;37.528;2023-09-19T01:55:26;100227.22;;;14.47;100.00
35435;BME280;21556;55.782;37.528;2023-09-19T01:58:07;100229.78;;;14.38;100.00
35435;BME280;21556;55.782;37.528;2023-09-19T02:00:42;100224.44;;;14.32;100.00
35435;BME280;21556;55.782;37.528;2023-09-19T02:03:11;100223.25;;;14.02;100.00
35435;BME280;21556;55.782;37.528;2023-09-19T02:05:39;100220.66;;;14.07;100.00
35435;BME280;21556;55.782;37.528;2023-09-19T02:08:07;100217.28;;;14.21;100.00
35435;BME280;21556;55.782;37.528;2023-09-19T02:10:34;100224.25;;;14.15;100.00
35435;BME280;21556;55.782;37.528;2023-09-19T02:13:00;100207.75;;;14.36;100.00
35435;BME280;21556;55.782;37.528;2023-09-19T02:15:38;100215.59;;;14.30;100.00
35435;BME280;21556;55.782;37.528;2023-09-19T02:18:05;100204.25;;;14.37;100.00
35435;BME280;21556;55.782;37.528;2023-09-19T02:20:37;100204.25;;;14.35;100.00
35435;BME280;21556;55.782;37.528;2023-09-19T02:23:03;100208.56;;;14.30;100.00
35435;BME280;21556;55.782;37.528;2023-09-19T02:25:33;100211.09;;;14.16;100.00
35435;BME280;21556;55.782;37.528;2023-09-19T02:28:04;100212.78;;;14.11;100.00
35435;BME280;21556;55.782;37.528;2023-09-19T02:30:32;100204.78;;;14.02;100.00
35435;BME280;21556;55.782;37.528;2023-09-19T02:33:00;100204.03;;;14.14;100.00
35435;BME280;21556;55.782;37.528;2023-09-19T02:35:29;100204.72;;;13.97;100.00
35435;BME280;21556;55.782;37.528;2023-09-19T02:38:01;100204.00;;;14.09;100.00
35435;BME280;21556;55.782;37.528;2023-09-19T02:40:34;100206.75;;;14.21;100.00
35435;BME280;21556;55.782;37.528;2023-09-19T02:43:03;100208.34;;;14.09;100.00
35435;BME280;21556;55.782;37.528;2023-09-19T02:45:36;100199.66;;;14.17;100.00
35435;BME280;21556;55.782;37.528;2023-09-19T02:48:05;100210.13;;;14.07;100.00
35435;BME280;21556;55.782;37.528;2023-09-19T02:50:39;100203.25;;;14.26;100.00
35435;BME280;21556;55.782;37.528;2023-09-19T02:53:16;100202.28;;;14.13;100.00
35435;BME280;21556;55.782;37.528;2023-09-19T02:55:46;100192.63;;;14.18;100.00
35435;BME280;21556;55.782;37.528;2023-09-19T02:58:13;100195.19;;;14.10;100.00
35435;BME280;21556;55.782;37.528;2023-09-19T03:00:45;100202.19;;;14.07;100.00
35435;BME280;21556;55.782;37.528;2023-09-19T03:03:19;100194.34;;;14.14;100.00
35435;BME280;21556;55.782;37.528;2023-09-19T03:05:48;100203.16;;;14.15;100.00
35435;BME280;21556;55.782;37.528;2023-09-19T03:08:21;100200.44;;;14.07;100.00
35435;BME280;21556;55.782;37.528;2023-09-19T03:10:51;100196.88;;;14.02;100.00
35435;BME280;21556;55.782;37.528;2023-09-19T03:13:24;100209.16;;;13.99;100.00
35435;BME280;21556;55.782;37.528;2023-09-19T03:15:54;100217.25;;;14.18;100.00
35435;BME280;21556;55.782;37.528;2023-09-19T03:18:25;100213.75;;;14.19;100.00
35435;BME280;21556;55.782;37.528;2023-09-19T03:21:02;100211.09;;;14.19;100.00
35435;BME280;21556;55.782;37.528;2023-09-19T03:23:37;100213.88;;;14.33;100.00
35435;BME280;21556;55.782;37.528;2023-09-19T03:26:06;100208.47;;;14.19;100.00
35435;BME280;21556;55.782;37.528;2023-09-19T03:28:33;100209.13;;;13.97;100.00
35435;BME280;21556;55.782;37.528;2023-09-19T03:31:09;100218.03;;;14.07;100.00
35435;BME280;21556;55.782;37.528;2023-09-19T03:33:39;100207.66;;;14.25;100.00
35435;BME280;21556;55.782;37.528;2023-09-19T03:36:13;100201.53;;;14.29;100.00
35435;BME280;21556;55.782;37.528;2023-09-19T03:38:45;100208.69;;;14.44;100.00
35435;BME280;21556;55.782;37.528;2023-09-19T03:41:11;100217.19;;;14.12;100.00
35435;BME280;21556;55.782;37.528;2023-09-19T03:43:40;100209.28;;;14.11;100.00
35435;BME280;21556;55.782;37.528;2023-09-19T03:46:09;100211.72;;;13.92;100.00
35435;BME280;21556;55.782;37.528;2023-09-19T03:48:41;100211.84;;;14.05;100.00
35435;BME280;21556;55.782;37.528;2023-09-19T03:51:14;100208.44;;;14.13;100.00
35435;BME280;21556;55.782;37.528;2023-09-19T03:53:44;100205.63;;;14.00;100.00
35435;BME280;21556;55.782;37.528;2023-09-19T03:56:13;100207.94;;;13.72;100.00
35435;BME280;21556;55.782;37.528;2023-09-19T03:58:43;100203.84;;;13.95;100.00
35435;BME280;21556;55.782;37.528;2023-09-19T04:01:13;100195.13;;;14.03;100.00
35435;BME280;21556;55.782;37.528;2023-09-19T04:03:40;100199.44;;;13.96;100.00
35435;BME280;21556;55.782;37.528;2023-09-19T04:06:19;100202.19;;;14.07;100.00
35435;BME280;21556;55.782;37.528;2023-09-19T04:08:46;100195.75;;;13.82;100.00
35435;BME280;21556;55.782;37.528;2023-09-19T04:11:15;100199.59;;;14.11;100.00
35435;BME280;21556;55.782;37.528;2023-09-19T04:13:53;100194.97;;;13.89;100.00
35435;BME280;21556;55.782;37.528;2023-09-19T04:16:24;100194.97;;;13.90;100.00
35435;BME280;21556;55.782;37.528;2023-09-19T04:18:56;100187.97;;;13.94;100.00
35435;BME280;21556;55.782;37.528;2023-09-19T04:21:27;100193.28;;;13.97;100.00
35435;BME280;21556;55.782;37.528;2023-09-19T04:24:06;100183.72;;;14.05;100.00
35435;BME280;21556;55.782;37.528;2023-09-19T04:26:36;100187.22;;;14.04;100.00
35435;BME280;21556;55.782;37.528;2023-09-19T04:29:05;100174.66;;;13.83;100.00
35435;BME280;21556;55.782;37.528;2023-09-19T04:31:36;100178.19;;;13.82;100.00
35435;BME280;21556;55.782;37.528;2023-09-19T04:34:25;100182.75;;;13.95;100.00
35435;BME280;21556;55.782;37.528;2023-09-19T04:36:51;100174.06;;;14.07;100.00
35435;BME280;21556;55.782;37.528;2023-09-19T04:39:27;100174.81;;;13.97;100.00
35435;BME280;21556;55.782;37.528;2023-09-19T04:41:56;100170.53;;;14.07;100.00
35435;BME280;21556;55.782;37.528;2023-09-19T04:44:34;100174.97;;;14.11;100.00
35435;BME280;21556;55.782;37.528;2023-09-19T04:47:30;100175.69;;;13.96;100.00
35435;BME280;21556;55.782;37.528;2023-09-19T04:50:02;100175.94;;;14.22;100.00
35435;BME280;21556;55.782;37.528;2023-09-19T04:52:31;100174.09;;;14.10;100.00
35435;BME280;21556;55.782;37.528;2023-09-19T04:55:00;100174.97;;;14.11;100.00
35435;BME280;21556;55.782;37.528;2023-09-19T04:57:28;100189.06;;;14.14;100.00
35435;BME280;21556;55.782;37.528;2023-09-19T05:00:02;100186.47;;;14.19;100.00
35435;BME280;21556;55.782;37.528;2023-09-19T05:02:33;100179.97;;;13.86;100.00
35435;BME280;21556;55.782;37.528;2023-09-19T05:05:01;100176.81;;;14.16;100.00
35435;BME280;21556;55.782;37.528;2023-09-19T05:07:29;100168.72;;;14.01;100.00
35435;BME280;21556;55.782;37.528;2023-09-19T05:09:56;100172.44;;;14.20;100.00
35435;BME280;21556;55.782;37.528;2023-09-19T05:12:23;100169.75;;;14.18;100.00
35435;BME280;21556;55.782;37.528;2023-09-19T05:14:54;100160.88;;;14.07;100.00
35435;BME280;21556;55.782;37.528;2023-09-19T05:17:31;100161.09;;;14.33;100.00
35435;BME280;21556;55.782;37.528;2023-09-19T05:20:02;100154.13;;;14.38;100.00
35435;BME280;21556;55.782;37.528;2023-09-19T05:22:43;100154.22;;;14.49;100.00
35435;BME280;21556;55.782;37.528;2023-09-19T05:25:22;100155.88;;;14.41;100.00
35435;BME280;21556;55.782;37.528;2023-09-19T05:27:53;100155.88;;;14.39;100.00
35435;BME280;21556;55.782;37.528;2023-09-19T05:30:20;100150.75;;;14.53;100.00
35435;BME280;21556;55.782;37.528;2023-09-19T05:32:51;100154.41;;;14.72;100.00
35435;BME280;21556;55.782;37.528;2023-09-19T05:35:31;100157.13;;;14.87;100.00
35435;BME280;21556;55.782;37.528;2023-09-19T05:38:01;100150.84;;;14.70;100.00
35435;BME280;21556;55.782;37.528;2023-09-19T05:40:41;100152.63;;;14.69;100.00
35435;BME280;21556;55.782;37.528;2023-09-19T05:43:13;100153.50;;;14.73;100.00
35435;BME280;21556;55.782;37.528;2023-09-19T05:45:50;100159.03;;;15.08;100.00
35435;BME280;21556;55.782;37.528;2023-09-19T05:48:18;100157.31;;;15.16;100.00
35435;BME280;21556;55.782;37.528;2023-09-19T05:50:45;100146.91;;;15.55;100.00
35435;BME280;21556;55.782;37.528;2023-09-19T05:53:26;100136.47;;;16.22;100.00
35435;BME280;21556;55.782;37.528;2023-09-19T05:55:54;100131.88;;;17.39;100.00
35435;BME280;21556;55.782;37.528;2023-09-19T05:58:21;100132.47;;;17.96;100.00
35435;BME280;21556;55.782;37.528;2023-09-19T06:00:50;100132.78;;;18.70;100.00
35435;BME280;21556;55.782;37.528;2023-09-19T06:03:18;100130.88;;;18.86;100.00
35435;BME280;21556;55.782;37.528;2023-09-19T06:05:46;100132.03;;;19.38;100.00
35435;BME280;21556;55.782;37.528;2023-09-19T06:08:15;100130.84;;;19.60;100.00
35435;BME280;21556;55.782;37.528;2023-09-19T06:10:46;100130.63;;;20.36;100.00
35435;BME280;21556;55.782;37.528;2023-09-19T06:13:17;100127.41;;;20.71;100.00
35435;BME280;21556;55.782;37.528;2023-09-19T06:15:45;100116.50;;;20.85;100.00
35435;BME280;21556;55.782;37.528;2023-09-19T06:18:13;100116.53;;;21.27;100.00
35435;BME280;21556;55.782;37.528;2023-09-19T06:20:48;100115.19;;;22.28;100.00
35435;BME280;21556;55.782;37.528;2023-09-19T06:23:18;100120.16;;;22.06;100.00
35435;BME280;21556;55.782;37.528;2023-09-19T06:25:49;100103.91;;;22.86;100.00
35435;BME280;21556;55.782;37.528;2023-09-19T06:28:15;100097.59;;;22.88;100.00
35435;BME280;21556;55.782;37.528;2023-09-19T06:30:48;100106.09;;;22.37;100.00
35435;BME280;21556;55.782;37.528;2023-09-19T06:33:13;100104.84;;;22.83;100.00
35435;BME280;21556;55.782;37.528;2023-09-19T06:35:40;100100.56;;;22.77;100.00
35435;BME280;21556;55.782;37.528;2023-09-19T06:38:08;100096.25;;;23.67;100.00
35435;BME280;21556;55.782;37.528;2023-09-19T06:40:36;100105.59;;;24.36;100.00
35435;BME280;21556;55.782;37.528;2023-09-19T06:43:04;100108.63;;;23.10;100.00
35435;BME280;21556;55.782;37.528;2023-09-19T06:45:32;100120.63;;;22.95;100.00
35435;BME280;21556;55.782;37.528;2023-09-19T06:47:59;100123.88;;;21.99;100.00
35435;BME280;21556;55.782;37.528;2023-09-19T06:50:26;100130.03;;;20.73;100.00
35435;BME280;21556;55.782;37.528;2023-09-19T06:52:57;100130.97;;;20.14;100.00
35435;BME280;21556;55.782;37.528;2023-09-19T06:55:25;100123.59;;;19.76;100.00
35435;BME280;21556;55.782;37.528;2023-09-19T06:57:53;100125.44;;;18.97;100.00
35435;BME280;21556;55.782;37.528;2023-09-19T07:00:24;100114.19;;;18.67;100.00
35435;BME280;21556;55.782;37.528;2023-09-19T07:03:02;100122.13;;;18.75;100.00
35435;BME280;21556;55.782;37.528;2023-09-19T07:05:31;100125.25;;;18.20;100.00
35435;BME280;21556;55.782;37.528;2023-09-19T07:08:02;100127.16;;;17.96;100.00
35435;BME280;21556;55.782;37.528;2023-09-19T07:10:28;100114.53;;;19.20;100.00
35435;BME280;21556;55.782;37.528;2023-09-19T07:12:59;100112.22;;;18.88;100.00
35435;BME280;21556;55.782;37.528;2023-09-19T07:15:27;100114.94;;;18.85;100.00
35435;BME280;21556;55.782;37.528;2023-09-19T07:17:57;100112.97;;;19.73;100.00
35435;BME280;21556;55.782;37.528;2023-09-19T07:20:24;100121.72;;;19.12;100.00
35435;BME280;21556;55.782;37.528;2023-09-19T07:22:58;100111.84;;;19.24;100.00
35435;BME280;21556;55.782;37.528;2023-09-19T07:25:29;100116.66;;;18.89;100.00
35435;BME280;21556;55.782;37.528;2023-09-19T07:27:56;100114.75;;;19.02;100.00
35435;BME280;21556;55.782;37.528;2023-09-19T07:30:27;100118.00;;;18.37;100.00
35435;BME280;21556;55.782;37.528;2023-09-19T07:32:53;100114.63;;;18.17;100.00
35435;BME280;21556;55.782;37.528;2023-09-19T07:35:19;100110.09;;;18.31;100.00
35435;BME280;21556;55.782;37.528;2023-09-19T07:37:49;100110.13;;;18.25;100.00
35435;BME280;21556;55.782;37.528;2023-09-19T07:40:18;100107.72;;;17.96;100.00
35435;BME280;21556;55.782;37.528;2023-09-19T07:42:52;100101.31;;;18.23;100.00
35435;BME280;21556;55.782;37.528;2023-09-19T07:45:19;100104.66;;;18.43;100.00
35435;BME280;21556;55.782;37.528;2023-09-19T07:47:52;100103.97;;;18.23;100.00
35435;BME280;21556;55.782;37.528;2023-09-19T07:50:21;100105.47;;;18.51;100.00
35435;BME280;21556;55.782;37.528;2023-09-19T07:52:51;100110.13;;;18.25;100.00
35435;BME280;21556;55.782;37.528;2023-09-19T07:55:20;100102.09;;;18.33;100.00
35435;BME280;21556;55.782;37.528;2023-09-19T07:57:53;100114.38;;;18.49;100.00
35435;BME280;21556;55.782;37.528;2023-09-19T08:00:20;100091.28;;;18.56;100.00
35435;BME280;21556;55.782;37.528;2023-09-19T08:02:46;100093.00;;;18.61;100.00
35435;BME280;21556;55.782;37.528;2023-09-19T08:05:13;100101.13;;;18.43;100.00
35435;BME280;21556;55.782;37.528;2023-09-19T08:07:45;100093.25;;;18.35;100.00
35435;BME280;21556;55.782;37.528;2023-09-19T08:10:14;100087.91;;;18.38;100.00
35435;BME280;21556;55.782;37.528;2023-09-19T08:12:43;100091.66;;;18.11;100.00
35435;BME280;21556;55.782;37.528;2023-09-19T08:15:17;100097.81;;;18.15;100.00
35435;BME280;21556;55.782;37.528;2023-09-19T08:17:49;100086.44;;;18.02;100.00
35435;BME280;21556;55.782;37.528;2023-09-19T08:20:23;100084.78;;;17.84;100.00
35435;BME280;21556;55.782;37.528;2023-09-19T08:22:56;100083.94;;;17.80;100.00
35435;BME280;21556;55.782;37.528;2023-09-19T08:25:24;100084.81;;;17.81;100.00
35435;BME280;21556;55.782;37.528;2023-09-19T08:27:57;100087.38;;;17.92;100.00
35435;BME280;21556;55.782;37.528;2023-09-19T08:30:33;100074.22;;;17.79;100.00
35435;BME280;21556;55.782;37.528;2023-09-19T08:33:05;100068.03;;;17.71;100.00
35435;BME280;21556;55.782;37.528;2023-09-19T08:35:42;100069.63;;;18.00;100.00
35435;BME280;21556;55.782;37.528;2023-09-19T08:38:12;100067.03;;;17.94;100.00
35435;BME280;21556;55.782;37.528;2023-09-19T08:40:44;100065.19;;;18.02;100.00
35435;BME280;21556;55.782;37.528;2023-09-19T08:43:10;100066.13;;;17.98;100.00
35435;BME280;21556;55.782;37.528;2023-09-19T08:46:10;100053.91;;;17.66;100.00
35435;BME280;21556;55.782;37.528;2023-09-19T08:48:54;100048.56;;;17.80;100.00
35435;BME280;21556;55.782;37.528;2023-09-19T08:51:47;100044.91;;;17.93;100.00
35435;BME280;21556;55.782;37.528;2023-09-19T08:54:35;100045.91;;;17.78;100.00
35435;BME280;21556;55.782;37.528;2023-09-19T08:57:12;100049.56;;;17.58;100.00
35435;BME280;21556;55.782;37.528;2023-09-19T08:59:40;100053.81;;;17.85;100.00
35435;BME280;21556;55.782;37.528;2023-09-19T09:02:21;100046.78;;;17.77;100.00
35435;BME280;21556;55.782;37.528;2023-09-19T09:05:06;100054.75;;;17.74;100.00
35435;BME280;21556;55.782;37.528;2023-09-19T09:08:11;100053.56;;;18.17;100.00
35435;BME280;21556;55.782;37.528;2023-09-19T09:10:41;100059.69;;;18.25;100.00
35435;BME280;21556;55.782;37.528;2023-09-19T09:13:10;100063.22;;;18.27;100.00
35435;BME280;21556;55.782;37.528;2023-09-19T09:15:41;100058.84;;;18.20;100.00
35435;BME280;21556;55.782;37.528;2023-09-19T09:18:12;100056.13;;;18.27;100.00
35435;BME280;21556;55.782;37.528;2023-09-19T09:20:42;100053.41;;;18.34;100.00
35435;BME280;21556;55.782;37.528;2023-09-19T09:23:13;100047.13;;;18.42;100.00
35435;BME280;21556;55.782;37.528;2023-09-19T09:25:53;100046.13;;;18.56;100.00
35435;BME280;21556;55.782;37.528;2023-09-19T09:28:25;100050.84;;;18.24;100.00
35435;BME280;21556;55.782;37.528;2023-09-19T09:30:54;100039.16;;;18.41;100.00
35435;BME280;21556;55.782;37.528;2023-09-19T09:33:21;100047.16;;;18.39;100.00
35435;BME280;21556;55.782;37.528;2023-09-19T09:35:53;100049.91;;;18.28;100.00
35435;BME280;21556;55.782;37.528;2023-09-19T09:38:26;100039.03;;;18.55;100.00
35435;BME280;21556;55.782;37.528;2023-09-19T09:40:54;100030.09;;;18.62;100.00
35435;BME280;21556;55.782;37.528;2023-09-19T09:43:37;100026.47;;;18.70;100.00
35435;BME280;21556;55.782;37.528;2023-09-19T09:48:58;100029.78;;;18.91;100.00
35435;BME280;21556;55.782;37.528;2023-09-19T09:51:58;100021.34;;;18.53;100.00
35435;BME280;21556;55.782;37.528;2023-09-19T09:54:29;100027.84;;;19.05;100.00
35435;BME280;21556;55.782;37.528;2023-09-19T09:57:12;100031.34;;;19.74;100.00
35435;BME280;21556;55.782;37.528;2023-09-19T09:59:50;100025.03;;;20.32;100.00
35435;BME280;21556;55.782;37.528;2023-09-19T10:02:26;100018.31;;;19.52;100.00
35435;BME280;21556;55.782;37.528;2023-09-19T10:04:56;100013.88;;;19.54;100.00
35435;BME280;21556;55.782;37.528;2023-09-19T10:07:52;100007.81;;;20.02;100.00
35435;BME280;21556;55.782;37.528;2023-09-19T10:10:39;100001.31;;;19.64;100.00
35435;BME280;21556;55.782;37.528;2023-09-19T10:17:22;100004.00;;;19.62;100.00
35435;BME280;21556;55.782;37.528;2023-09-19T10:19:59;100000.84;;;19.93;100.00
35435;BME280;21556;55.782;37.528;2023-09-19T10:22:35;99998.63;;;20.18;100.00
35435;BME280;21556;55.782;37.528;2023-09-19T10:25:14;99986.03;;;21.16;100.00
35435;BME280;21556;55.782;37.528;2023-09-19T10:27:43;99988.50;;;21.64;100.00
35435;BME280;21556;55.782;37.528;2023-09-19T10:30:10;99984.63;;;22.13;100.00
35435;BME280;21556;55.782;37.528;2023-09-19T10:32:41;99985.09;;;22.30;100.00
35435;BME280;21556;55.782;37.528;2023-09-19T10:35:08;99978.03;;;21.92;100.00
35435;BME280;21556;55.782;37.528;2023-09-19T10:37:39;99979.69;;;21.60;100.00
35435;BME280;21556;55.782;37.528;2023-09-19T10:40:15;99974.41;;;22.29;100.00
35435;BME280;21556;55.782;37.528;2023-09-19T10:42:46;99968.66;;;22.75;100.00
35435;BME280;21556;55.782;37.528;2023-09-19T10:45:15;99960.59;;;22.46;100.00
35435;BME280;21556;55.782;37.528;2023-09-19T10:51:53;99966.00;;;22.10;100.00
35435;BME280;21556;55.782;37.528;2023-09-19T10:54:26;99962.34;;;21.78;100.00
35435;BME280;21556;55.782;37.528;2023-09-19T10:56:54;99964.75;;;21.89;100.00
35435;BME280;21556;55.782;37.528;2023-09-19T10:59:25;99960.59;;;21.42;100.00
35435;BME280;21556;55.782;37.528;2023-09-19T11:02:18;99965.97;;;21.38;100.00
35435;BME280;21556;55.782;37.528;2023-09-19T11:04:44;99963.13;;;21.06;100.00
35435;BME280;21556;55.782;37.528;2023-09-19T11:07:14;99954.31;;;21.44;100.00
35435;BME280;21556;55.782;37.528;2023-09-19T11:09:50;99960.44;;;21.48;100.00
35435;BME280;21556;55.782;37.528;2023-09-19T11:14:59;99959.41;;;21.14;100.00
35435;BME280;21556;55.782;37.528;2023-09-19T11:30:46;99947.38;;;20.95;100.00
35435;BME280;21556;55.782;37.528;2023-09-19T11:33:29;99946.38;;;21.41;100.00
35435;BME280;21556;55.782;37.528;2023-09-19T11:36:16;99949.69;;;21.51;100.00
35435;BME280;21556;55.782;37.528;2023-09-19T11:46:55;99933.88;;;21.43;100.00
35435;BME280;21556;55.782;37.528;2023-09-19T11:49:32;99918.41;;;21.57;100.00
35435;BME280;21556;55.782;37.528;2023-09-19T11:52:02;99930.22;;;21.46;100.00
35435;BME280;21556;55.782;37.528;2023-09-19T11:54:35;99922.88;;;21.16;100.00
35435;BME280;21556;55.782;37.528;2023-09-19T11:57:10;99916.88;;;21.47;100.00
35435;BME280;21556;55.782;37.528;2023-09-19T11:59:41;99914.81;;;21.58;100.00
35435;BME280;21556;55.782;37.528;2023-09-19T12:02:14;99907.78;;;21.54;100.00
35435;BME280;21556;55.782;37.528;2023-09-19T12:04:44;99898.00;;;21.55;100.00
35435;BME280;21556;55.782;37.528;2023-09-19T12:07:17;99896.88;;;21.63;100.00
35435;BME280;21556;55.782;37.528;2023-09-19T12:10:04;99896.50;;;21.77;100.00
35435;BME280;21556;55.782;37.528;2023-09-19T12:12:36;99889.16;;;21.87;100.00
35435;BME280;21556;55.782;37.528;2023-09-19T12:15:26;99885.03;;;21.74;100.00
35435;BME280;21556;55.782;37.528;2023-09-19T12:18:00;99888.66;;;21.71;100.00
35435;BME280;21556;55.782;37.528;2023-09-19T12:20:46;99874.16;;;21.81;100.00
35435;BME280;21556;55.782;37.528;2023-09-19T12:23:22;99875.75;;;21.54;100.00
35435;BME280;21556;55.782;37.528;2023-09-19T12:25:54;99873.25;;;21.82;100.00
35435;BME280;21556;55.782;37.528;2023-09-19T12:28:41;99865.69;;;21.66;100.00
35435;BME280;21556;55.782;37.528;2023-09-19T12:31:13;99863.94;;;21.65;100.00
35435;BME280;21556;55.782;37.528;2023-09-19T12:33:42;99868.56;;;21.56;100.00
35435;BME280;21556;55.782;37.528;2023-09-19T12:36:23;99861.00;;;21.75;100.00
35435;BME280;21556;55.782;37.528;2023-09-19T12:39:03;99861.09;;;21.71;100.00
35435;BME280;21556;55.782;37.528;2023-09-19T12:41:38;99864.16;;;21.90;100.00
35435;BME280;21556;55.782;37.528;2023-09-19T12:44:14;99856.88;;;21.95;100.00
35435;BME280;21556;55.782;37.528;2023-09-19T12:46:45;99855.31;;;21.87;100.00
35435;BME280;21556;55.782;37.528;2023-09-19T12:49:18;99849.25;;;21.81;100.00
35435;BME280;21556;55.782;37.528;2023-09-19T12:51:48;99845.06;;;22.03;100.00
35435;BME280;21556;55.782;37.528;2023-09-19T12:54:20;99843.63;;;21.92;100.00
35435;BME280;21556;55.782;37.528;2023-09-19T12:56:54;99845.19;;;21.99;100.00
35435;BME280;21556;55.782;37.528;2023-09-19T12:59:29;99840.41;;;22.11;100.00
35435;BME280;21556;55.782;37.528;2023-09-19T13:02:08;99839.72;;;22.03;100.00
35435;BME280;21556;55.782;37.528;2023-09-19T13:04:52;99848.44;;;22.10;100.00
35435;BME280;21556;55.782;37.528;2023-09-19T13:07:44;99838.41;;;22.20;100.00
35435;BME280;21556;55.782;37.528;2023-09-19T13:10:17;99837.53;;;22.19;100.00
35435;BME280;21556;55.782;37.528;2023-09-19T13:12:48;99826.66;;;22.25;100.00
35435;BME280;21556;55.782;37.528;2023-09-19T13:15:17;99830.91;;;22.32;100.00
35435;BME280;21556;55.782;37.528;2023-09-19T13:17:56;99829.00;;;22.36;100.00
35435;BME280;21556;55.782;37.528;2023-09-19T13:20:32;99829.78;;;22.41;100.00
35435;BME280;21556;55.782;37.528;2023-09-19T13:23:26;99819.81;;;22.46;100.00
35435;BME280;21556;55.782;37.528;2023-09-19T13:26:01;99816.34;;;22.43;100.00
35435;BME280;21556;55.782;37.528;2023-09-19T13:28:33;99815.66;;;22.36;100.00
35435;BME280;21556;55.782;37.528;2023-09-19T13:31:00;99817.28;;;22.42;100.00
35435;BME280;21556;55.782;37.528;2023-09-19T13:33:29;99817.75;;;22.56;100.00
35435;BME280;21556;55.782;37.528;2023-09-19T13:36:02;99819.31;;;22.62;100.00
35435;BME280;21556;55.782;37.528;2023-09-19T13:38:33;99810.28;;;22.66;100.00
35435;BME280;21556;55.782;37.528;2023-09-19T13:41:05;99813.78;;;22.68;100.00
35435;BME280;21556;55.782;37.528;2023-09-19T13:43:33;99808.59;;;22.63;100.00
35435;BME280;21556;55.782;37.528;2023-09-19T13:46:04;99810.25;;;22.67;100.00